sensor_id;sensor_type;location;lat;lon;timestamp;P1;durP1;ratioP1;P2;durP2;ratioP2
44536;SDS011;30245;51.966;6.292;2022-12-18T00:01:26;42.50;;;22.83;;
44536;SDS011;30245;51.966;6.292;2022-12-18T00:03:54;41.87;;;21.80;;
44536;SDS011;30245;51.966;6.292;2022-12-18T00:06:21;44.20;;;20.63;;
44536;SDS011;30245;51.966;6.292;2022-12-18T00:08:48;42.27;;;19.50;;
44536;SDS011;30245;51.966;6.292;2022-12-18T00:11:15;43.47;;;20.10;;
44536;SDS011;30245;51.966;6.292;2022-12-18T00:13:46;45.57;;;22.30;;
44536;SDS011;30245;51.966;6.292;2022-12-18T00:16:13;42.07;;;22.93;;
44536;SDS011;30245;51.966;6.292;2022-12-18T00:18:41;45.33;;;22.00;;
44536;SDS011;30245;51.966;6.292;2022-12-18T00:21:09;43.00;;;19.83;;
44536;SDS011;30245;51.966;6.292;2022-12-18T00:23:36;41.20;;;20.95;;
44536;SDS011;30245;51.966;6.292;2022-12-18T00:26:03;46.60;;;20.00;;
44536;SDS011;30245;51.966;6.292;2022-12-18T00:28:35;40.00;;;18.07;;
44536;SDS011;30245;51.966;6.292;2022-12-18T00:31:01;45.07;;;18.87;;
44536;SDS011;30245;51.966;6.292;2022-12-18T00:33:32;44.67;;;19.80;;
44536;SDS011;30245;51.966;6.292;2022-12-18T00:36:01;40.97;;;21.13;;
44536;SDS011;30245;51.966;6.292;2022-12-18T00:40:53;42.77;;;21.53;;
44536;SDS011;30245;51.966;6.292;2022-12-18T00:43:18;40.77;;;20.30;;
44536;SDS011;30245;51.966;6.292;2022-12-18T00:45:44;44.20;;;22.23;;
44536;SDS011;30245;51.966;6.292;2022-12-18T00:48:10;45.93;;;22.27;;
44536;SDS011;30245;51.966;6.292;2022-12-18T00:50:35;46.60;;;21.93;;
44536;SDS011;30245;51.966;6.292;2022-12-18T00:53:01;41.53;;;19.67;;
44536;SDS011;30245;51.966;6.292;2022-12-18T00:55:27;44.03;;;19.33;;
44536;SDS011;30245;51.966;6.292;2022-12-18T00:57:52;40.27;;;21.80;;
44536;SDS011;30245;51.966;6.292;2022-12-18T01:00:18;42.03;;;22.07;;
44536;SDS011;30245;51.966;6.292;2022-12-18T01:02:44;46.30;;;22.70;;
44536;SDS011;30245;51.966;6.292;2022-12-18T01:05:10;42.50;;;21.23;;
44536;SDS011;30245;51.966;6.292;2022-12-18T01:07:36;37.33;;;20.83;;
44536;SDS011;30245;51.966;6.292;2022-12-18T01:10:03;41.10;;;19.77;;
44536;SDS011;30245;51.966;6.292;2022-12-18T01:12:29;34.93;;;18.53;;
44536;SDS011;30245;51.966;6.292;2022-12-18T01:14:55;39.17;;;18.83;;
44536;SDS011;30245;51.966;6.292;2022-12-18T01:17:21;38.67;;;18.93;;
44536;SDS011;30245;51.966;6.292;2022-12-18T01:19:47;29.90;;;15.57;;
44536;SDS011;30245;51.966;6.292;2022-12-18T01:22:12;35.33;;;16.20;;
44536;SDS011;30245;51.966;6.292;2022-12-18T01:24:38;29.43;;;15.43;;
44536;SDS011;30245;51.966;6.292;2022-12-18T01:27:03;32.60;;;17.17;;
44536;SDS011;30245;51.966;6.292;2022-12-18T01:29:29;34.77;;;17.43;;
44536;SDS011;30245;51.966;6.292;2022-12-18T01:31:55;32.20;;;16.60;;
44536;SDS011;30245;51.966;6.292;2022-12-18T01:34:21;33.97;;;17.13;;
44536;SDS011;30245;51.966;6.292;2022-12-18T01:36:47;37.13;;;18.23;;
44536;SDS011;30245;51.966;6.292;2022-12-18T01:39:13;33.40;;;17.83;;
44536;SDS011;30245;51.966;6.292;2022-12-18T01:41:39;38.77;;;17.40;;
44536;SDS011;30245;51.966;6.292;2022-12-18T01:47:34;33.20;;;16.70;;
44536;SDS011;30245;51.966;6.292;2022-12-18T01:50:07;28.13;;;15.65;;
44536;SDS011;30245;51.966;6.292;2022-12-18T01:52:40;23.57;;;13.50;;
44536;SDS011;30245;51.966;6.292;2022-12-18T01:55:08;27.05;;;15.65;;
44536;SDS011;30245;51.966;6.292;2022-12-18T01:57:35;32.97;;;16.17;;
44536;SDS011;30245;51.966;6.292;2022-12-18T02:00:04;33.07;;;15.30;;
44536;SDS011;30245;51.966;6.292;2022-12-18T02:02:33;29.97;;;16.00;;
44536;SDS011;30245;51.966;6.292;2022-12-18T02:04:59;30.63;;;16.53;;
44536;SDS011;30245;51.966;6.292;2022-12-18T02:13:01;36.90;;;14.93;;
44536;SDS011;30245;51.966;6.292;2022-12-18T02:18:05;35.13;;;17.20;;
44536;SDS011;30245;51.966;6.292;2022-12-18T02:20:57;27.90;;;13.43;;
44536;SDS011;30245;51.966;6.292;2022-12-18T02:26:30;27.63;;;16.80;;
44536;SDS011;30245;51.966;6.292;2022-12-18T02:29:05;26.00;;;15.37;;
44536;SDS011;30245;51.966;6.292;2022-12-18T02:31:36;25.13;;;13.70;;
44536;SDS011;30245;51.966;6.292;2022-12-18T02:34:07;25.30;;;14.73;;
44536;SDS011;30245;51.966;6.292;2022-12-18T02:36:34;29.47;;;14.50;;
44536;SDS011;30245;51.966;6.292;2022-12-18T02:41:30;28.90;;;13.17;;
44536;SDS011;30245;51.966;6.292;2022-12-18T02:43:57;29.73;;;15.27;;
44536;SDS011;30245;51.966;6.292;2022-12-18T02:48:52;22.87;;;12.70;;
44536;SDS011;30245;51.966;6.292;2022-12-18T02:54:06;26.70;;;13.47;;
44536;SDS011;30245;51.966;6.292;2022-12-18T02:56:39;29.73;;;13.60;;
44536;SDS011;30245;51.966;6.292;2022-12-18T02:59:13;25.37;;;11.57;;
44536;SDS011;30245;51.966;6.292;2022-12-18T03:01:51;26.17;;;13.40;;
44536;SDS011;30245;51.966;6.292;2022-12-18T03:07:37;26.20;;;13.67;;
44536;SDS011;30245;51.966;6.292;2022-12-18T03:10:07;19.57;;;13.33;;
44536;SDS011;30245;51.966;6.292;2022-12-18T03:12:40;20.93;;;13.67;;
44536;SDS011;30245;51.966;6.292;2022-12-18T03:15:21;19.23;;;13.37;;
44536;SDS011;30245;51.966;6.292;2022-12-18T03:17:52;20.20;;;12.03;;
44536;SDS011;30245;51.966;6.292;2022-12-18T03:20:26;23.37;;;11.13;;
44536;SDS011;30245;51.966;6.292;2022-12-18T03:22:57;22.27;;;12.40;;
44536;SDS011;30245;51.966;6.292;2022-12-18T03:25:29;24.30;;;11.70;;
44536;SDS011;30245;51.966;6.292;2022-12-18T03:27:58;20.60;;;11.82;;
44536;SDS011;30245;51.966;6.292;2022-12-18T03:30:28;24.43;;;12.47;;
44536;SDS011;30245;51.966;6.292;2022-12-18T03:36:03;28.90;;;17.13;;
44536;SDS011;30245;51.966;6.292;2022-12-18T03:38:29;31.63;;;17.87;;
44536;SDS011;30245;51.966;6.292;2022-12-18T03:46:06;32.75;;;14.80;;
44536;SDS011;30245;51.966;6.292;2022-12-18T03:48:44;34.13;;;15.47;;
44536;SDS011;30245;51.966;6.292;2022-12-18T03:51:23;29.07;;;16.67;;
44536;SDS011;30245;51.966;6.292;2022-12-18T03:56:19;22.15;;;14.55;;
44536;SDS011;30245;51.966;6.292;2022-12-18T03:58:47;29.20;;;15.35;;
44536;SDS011;30245;51.966;6.292;2022-12-18T04:01:15;29.67;;;15.98;;
44536;SDS011;30245;51.966;6.292;2022-12-18T04:03:43;29.00;;;13.77;;
44536;SDS011;30245;51.966;6.292;2022-12-18T04:06:11;30.67;;;16.80;;
44536;SDS011;30245;51.966;6.292;2022-12-18T04:08:37;27.80;;;13.23;;
44536;SDS011;30245;51.966;6.292;2022-12-18T04:11:04;34.80;;;16.03;;
44536;SDS011;30245;51.966;6.292;2022-12-18T04:13:37;24.53;;;13.37;;
44536;SDS011;30245;51.966;6.292;2022-12-18T04:16:03;24.77;;;12.00;;
44536;SDS011;30245;51.966;6.292;2022-12-18T04:18:29;22.47;;;12.77;;
44536;SDS011;30245;51.966;6.292;2022-12-18T04:20:55;23.77;;;12.00;;
44536;SDS011;30245;51.966;6.292;2022-12-18T04:23:21;23.50;;;12.57;;
44536;SDS011;30245;51.966;6.292;2022-12-18T04:25:47;26.23;;;13.83;;
44536;SDS011;30245;51.966;6.292;2022-12-18T04:28:12;26.93;;;11.33;;
44536;SDS011;30245;51.966;6.292;2022-12-18T04:30:38;27.93;;;14.10;;
44536;SDS011;30245;51.966;6.292;2022-12-18T04:33:05;23.83;;;11.40;;
44536;SDS011;30245;51.966;6.292;2022-12-18T04:35:36;26.90;;;12.43;;
44536;SDS011;30245;51.966;6.292;2022-12-18T04:38:02;23.30;;;13.30;;
44536;SDS011;30245;51.966;6.292;2022-12-18T04:40:27;24.57;;;13.73;;
44536;SDS011;30245;51.966;6.292;2022-12-18T04:42:53;23.53;;;12.07;;
44536;SDS011;30245;51.966;6.292;2022-12-18T04:45:18;24.90;;;14.53;;
44536;SDS011;30245;51.966;6.292;2022-12-18T04:47:44;21.00;;;10.63;;
44536;SDS011;30245;51.966;6.292;2022-12-18T04:50:09;16.60;;;9.97;;
44536;SDS011;30245;51.966;6.292;2022-12-18T04:52:35;22.40;;;10.27;;
44536;SDS011;30245;51.966;6.292;2022-12-18T04:55:01;20.13;;;11.80;;
44536;SDS011;30245;51.966;6.292;2022-12-18T04:57:26;16.60;;;9.80;;
44536;SDS011;30245;51.966;6.292;2022-12-18T04:59:52;18.50;;;10.00;;
44536;SDS011;30245;51.966;6.292;2022-12-18T05:02:17;15.00;;;9.20;;
44536;SDS011;30245;51.966;6.292;2022-12-18T05:04:43;17.17;;;9.97;;
44536;SDS011;30245;51.966;6.292;2022-12-18T05:07:08;16.57;;;9.97;;
44536;SDS011;30245;51.966;6.292;2022-12-18T05:09:34;20.60;;;11.60;;
44536;SDS011;30245;51.966;6.292;2022-12-18T05:11:59;16.77;;;8.33;;
44536;SDS011;30245;51.966;6.292;2022-12-18T05:14:25;21.80;;;10.90;;
44536;SDS011;30245;51.966;6.292;2022-12-18T05:16:52;16.77;;;10.50;;
44536;SDS011;30245;51.966;6.292;2022-12-18T05:19:18;16.63;;;9.40;;
44536;SDS011;30245;51.966;6.292;2022-12-18T05:21:43;17.80;;;7.97;;
44536;SDS011;30245;51.966;6.292;2022-12-18T05:24:09;16.03;;;9.03;;
44536;SDS011;30245;51.966;6.292;2022-12-18T05:26:34;15.83;;;8.83;;
44536;SDS011;30245;51.966;6.292;2022-12-18T05:29:00;18.43;;;9.77;;
44536;SDS011;30245;51.966;6.292;2022-12-18T05:31:25;13.97;;;8.83;;
44536;SDS011;30245;51.966;6.292;2022-12-18T05:33:51;19.80;;;10.67;;
44536;SDS011;30245;51.966;6.292;2022-12-18T05:36:16;17.43;;;9.13;;
44536;SDS011;30245;51.966;6.292;2022-12-18T05:38:42;25.30;;;11.13;;
44536;SDS011;30245;51.966;6.292;2022-12-18T05:41:08;17.83;;;9.00;;
44536;SDS011;30245;51.966;6.292;2022-12-18T05:43:35;15.23;;;8.37;;
44536;SDS011;30245;51.966;6.292;2022-12-18T05:46:05;15.67;;;9.70;;
44536;SDS011;30245;51.966;6.292;2022-12-18T05:48:32;21.60;;;9.83;;
44536;SDS011;30245;51.966;6.292;2022-12-18T05:51:02;19.77;;;9.23;;
44536;SDS011;30245;51.966;6.292;2022-12-18T05:53:33;17.57;;;9.30;;
44536;SDS011;30245;51.966;6.292;2022-12-18T05:55:59;16.53;;;10.20;;
44536;SDS011;30245;51.966;6.292;2022-12-18T05:58:27;17.53;;;10.00;;
44536;SDS011;30245;51.966;6.292;2022-12-18T06:00:52;18.33;;;10.17;;
44536;SDS011;30245;51.966;6.292;2022-12-18T06:03:18;19.70;;;9.77;;
44536;SDS011;30245;51.966;6.292;2022-12-18T06:05:44;18.00;;;8.80;;
44536;SDS011;30245;51.966;6.292;2022-12-18T06:08:11;15.60;;;9.87;;
44536;SDS011;30245;51.966;6.292;2022-12-18T06:10:38;17.10;;;8.90;;
44536;SDS011;30245;51.966;6.292;2022-12-18T06:13:04;18.70;;;8.57;;
44536;SDS011;30245;51.966;6.292;2022-12-18T06:15:31;22.30;;;11.53;;
44536;SDS011;30245;51.966;6.292;2022-12-18T06:17:57;23.83;;;11.40;;
44536;SDS011;30245;51.966;6.292;2022-12-18T06:20:22;16.87;;;9.43;;
44536;SDS011;30245;51.966;6.292;2022-12-18T06:22:48;23.03;;;12.60;;
44536;SDS011;30245;51.966;6.292;2022-12-18T06:25:14;21.47;;;10.60;;
44536;SDS011;30245;51.966;6.292;2022-12-18T06:27:39;18.57;;;8.93;;
44536;SDS011;30245;51.966;6.292;2022-12-18T06:30:05;17.20;;;8.73;;
44536;SDS011;30245;51.966;6.292;2022-12-18T06:32:31;19.33;;;10.90;;
44536;SDS011;30245;51.966;6.292;2022-12-18T06:34:57;21.30;;;11.70;;
44536;SDS011;30245;51.966;6.292;2022-12-18T06:37:22;17.43;;;8.93;;
44536;SDS011;30245;51.966;6.292;2022-12-18T06:39:50;19.33;;;10.75;;
44536;SDS011;30245;51.966;6.292;2022-12-18T06:42:17;19.90;;;11.20;;
44536;SDS011;30245;51.966;6.292;2022-12-18T06:44:42;22.97;;;9.10;;
44536;SDS011;30245;51.966;6.292;2022-12-18T06:47:08;17.43;;;11.57;;
44536;SDS011;30245;51.966;6.292;2022-12-18T06:49:34;18.23;;;9.97;;
44536;SDS011;30245;51.966;6.292;2022-12-18T06:51:59;22.83;;;11.70;;
44536;SDS011;30245;51.966;6.292;2022-12-18T06:54:25;17.20;;;10.97;;
44536;SDS011;30245;51.966;6.292;2022-12-18T06:56:50;21.23;;;12.03;;
44536;SDS011;30245;51.966;6.292;2022-12-18T06:59:16;22.13;;;11.33;;
44536;SDS011;30245;51.966;6.292;2022-12-18T07:01:41;20.70;;;11.00;;
44536;SDS011;30245;51.966;6.292;2022-12-18T07:04:07;16.53;;;9.43;;
44536;SDS011;30245;51.966;6.292;2022-12-18T07:06:32;21.93;;;12.10;;
44536;SDS011;30245;51.966;6.292;2022-12-18T07:08:58;19.77;;;9.30;;
44536;SDS011;30245;51.966;6.292;2022-12-18T07:11:24;15.43;;;10.60;;
44536;SDS011;30245;51.966;6.292;2022-12-18T07:13:51;20.17;;;9.60;;
44536;SDS011;30245;51.966;6.292;2022-12-18T07:16:18;20.50;;;9.80;;
44536;SDS011;30245;51.966;6.292;2022-12-18T07:18:45;24.17;;;12.67;;
44536;SDS011;30245;51.966;6.292;2022-12-18T07:21:12;18.37;;;10.43;;
44536;SDS011;30245;51.966;6.292;2022-12-18T07:23:41;17.77;;;8.30;;
44536;SDS011;30245;51.966;6.292;2022-12-18T07:26:08;17.20;;;10.13;;
44536;SDS011;30245;51.966;6.292;2022-12-18T07:28:38;18.60;;;9.43;;
44536;SDS011;30245;51.966;6.292;2022-12-18T07:31:05;17.83;;;10.40;;
44536;SDS011;30245;51.966;6.292;2022-12-18T07:33:33;17.93;;;9.90;;
44536;SDS011;30245;51.966;6.292;2022-12-18T07:35:59;20.13;;;10.43;;
44536;SDS011;30245;51.966;6.292;2022-12-18T07:38:26;19.47;;;11.20;;
44536;SDS011;30245;51.966;6.292;2022-12-18T07:40:52;16.97;;;9.30;;
44536;SDS011;30245;51.966;6.292;2022-12-18T07:43:17;14.90;;;8.73;;
44536;SDS011;30245;51.966;6.292;2022-12-18T07:45:43;15.57;;;9.67;;
44536;SDS011;30245;51.966;6.292;2022-12-18T07:48:09;13.30;;;7.27;;
44536;SDS011;30245;51.966;6.292;2022-12-18T07:50:34;15.07;;;9.20;;
44536;SDS011;30245;51.966;6.292;2022-12-18T07:53:00;14.57;;;8.67;;
44536;SDS011;30245;51.966;6.292;2022-12-18T07:55:28;19.48;;;9.75;;
44536;SDS011;30245;51.966;6.292;2022-12-18T07:57:55;19.80;;;10.13;;
44536;SDS011;30245;51.966;6.292;2022-12-18T08:00:21;17.23;;;8.47;;
44536;SDS011;30245;51.966;6.292;2022-12-18T08:02:47;17.27;;;9.93;;
44536;SDS011;30245;51.966;6.292;2022-12-18T08:05:12;20.17;;;10.07;;
44536;SDS011;30245;51.966;6.292;2022-12-18T08:07:38;20.70;;;9.93;;
44536;SDS011;30245;51.966;6.292;2022-12-18T08:10:04;21.53;;;11.07;;
44536;SDS011;30245;51.966;6.292;2022-12-18T08:12:31;20.67;;;10.43;;
44536;SDS011;30245;51.966;6.292;2022-12-18T08:14:56;22.13;;;11.27;;
44536;SDS011;30245;51.966;6.292;2022-12-18T08:17:22;22.90;;;11.13;;
44536;SDS011;30245;51.966;6.292;2022-12-18T08:19:47;22.60;;;11.13;;
44536;SDS011;30245;51.966;6.292;2022-12-18T08:22:13;17.87;;;10.07;;
44536;SDS011;30245;51.966;6.292;2022-12-18T08:24:39;19.43;;;10.87;;
44536;SDS011;30245;51.966;6.292;2022-12-18T08:27:04;12.87;;;7.67;;
44536;SDS011;30245;51.966;6.292;2022-12-18T08:29:30;13.50;;;8.37;;
44536;SDS011;30245;51.966;6.292;2022-12-18T08:31:56;19.47;;;9.47;;
44536;SDS011;30245;51.966;6.292;2022-12-18T08:34:22;16.63;;;8.30;;
44536;SDS011;30245;51.966;6.292;2022-12-18T08:36:47;12.03;;;8.20;;
44536;SDS011;30245;51.966;6.292;2022-12-18T08:39:13;12.47;;;7.17;;
44536;SDS011;30245;51.966;6.292;2022-12-18T08:41:39;8.33;;;5.63;;
44536;SDS011;30245;51.966;6.292;2022-12-18T08:44:04;11.37;;;6.30;;
44536;SDS011;30245;51.966;6.292;2022-12-18T08:46:50;9.93;;;6.53;;
44536;SDS011;30245;51.966;6.292;2022-12-18T08:49:16;14.93;;;6.30;;
44536;SDS011;30245;51.966;6.292;2022-12-18T08:51:41;11.07;;;5.57;;
44536;SDS011;30245;51.966;6.292;2022-12-18T08:54:08;8.27;;;5.63;;
44536;SDS011;30245;51.966;6.292;2022-12-18T08:56:36;10.87;;;6.13;;
44536;SDS011;30245;51.966;6.292;2022-12-18T08:59:02;10.10;;;5.50;;
44536;SDS011;30245;51.966;6.292;2022-12-18T09:01:29;9.97;;;5.37;;
44536;SDS011;30245;51.966;6.292;2022-12-18T09:03:55;10.83;;;5.70;;
44536;SDS011;30245;51.966;6.292;2022-12-18T09:06:21;8.67;;;5.43;;
44536;SDS011;30245;51.966;6.292;2022-12-18T09:08:47;8.53;;;5.60;;
44536;SDS011;30245;51.966;6.292;2022-12-18T09:11:15;8.30;;;6.03;;
44536;SDS011;30245;51.966;6.292;2022-12-18T09:13:45;8.40;;;6.37;;
44536;SDS011;30245;51.966;6.292;2022-12-18T09:16:11;9.80;;;5.27;;
44536;SDS011;30245;51.966;6.292;2022-12-18T09:18:37;9.47;;;6.40;;
44536;SDS011;30245;51.966;6.292;2022-12-18T09:21:09;6.50;;;4.20;;
44536;SDS011;30245;51.966;6.292;2022-12-18T09:23:36;10.47;;;5.63;;
44536;SDS011;30245;51.966;6.292;2022-12-18T09:26:02;6.80;;;5.23;;
44536;SDS011;30245;51.966;6.292;2022-12-18T09:28:28;8.10;;;4.57;;
44536;SDS011;30245;51.966;6.292;2022-12-18T09:30:53;9.23;;;5.87;;
44536;SDS011;30245;51.966;6.292;2022-12-18T09:33:19;11.07;;;7.70;;
44536;SDS011;30245;51.966;6.292;2022-12-18T09:35:45;12.77;;;5.57;;
44536;SDS011;30245;51.966;6.292;2022-12-18T09:38:12;7.63;;;5.13;;
44536;SDS011;30245;51.966;6.292;2022-12-18T09:40:49;8.43;;;5.27;;
44536;SDS011;30245;51.966;6.292;2022-12-18T09:43:18;10.00;;;4.53;;
44536;SDS011;30245;51.966;6.292;2022-12-18T09:45:51;7.53;;;5.27;;
44536;SDS011;30245;51.966;6.292;2022-12-18T09:48:23;7.83;;;6.10;;
44536;SDS011;30245;51.966;6.292;2022-12-18T09:50:53;8.73;;;6.27;;
44536;SDS011;30245;51.966;6.292;2022-12-18T09:53:23;9.33;;;5.70;;
44536;SDS011;30245;51.966;6.292;2022-12-18T09:55:52;11.57;;;7.00;;
44536;SDS011;30245;51.966;6.292;2022-12-18T09:58:36;10.53;;;6.33;;
44536;SDS011;30245;51.966;6.292;2022-12-18T10:01:14;9.03;;;4.83;;
44536;SDS011;30245;51.966;6.292;2022-12-18T10:03:45;9.87;;;5.77;;
44536;SDS011;30245;51.966;6.292;2022-12-18T10:06:23;7.77;;;4.57;;
44536;SDS011;30245;51.966;6.292;2022-12-18T10:08:54;9.73;;;4.47;;
44536;SDS011;30245;51.966;6.292;2022-12-18T10:23:09;7.87;;;5.07;;
44536;SDS011;30245;51.966;6.292;2022-12-18T10:25:54;7.80;;;5.53;;
44536;SDS011;30245;51.966;6.292;2022-12-18T10:28:32;8.30;;;4.87;;
44536;SDS011;30245;51.966;6.292;2022-12-18T10:31:00;8.60;;;3.77;;
44536;SDS011;30245;51.966;6.292;2022-12-18T10:33:28;12.03;;;5.67;;
44536;SDS011;30245;51.966;6.292;2022-12-18T10:35:56;6.70;;;4.70;;
44536;SDS011;30245;51.966;6.292;2022-12-18T10:38:28;9.30;;;5.67;;
44536;SDS011;30245;51.966;6.292;2022-12-18T10:41:05;7.83;;;5.40;;
44536;SDS011;30245;51.966;6.292;2022-12-18T10:44:09;10.57;;;6.20;;
44536;SDS011;30245;51.966;6.292;2022-12-18T10:46:47;5.70;;;4.07;;
44536;SDS011;30245;51.966;6.292;2022-12-18T10:49:31;8.10;;;4.53;;
44536;SDS011;30245;51.966;6.292;2022-12-18T10:54:36;9.67;;;6.03;;
44536;SDS011;30245;51.966;6.292;2022-12-18T10:57:28;11.47;;;5.63;;
44536;SDS011;30245;51.966;6.292;2022-12-18T11:00:22;6.57;;;4.37;;
44536;SDS011;30245;51.966;6.292;2022-12-18T11:02:53;8.13;;;4.73;;
44536;SDS011;30245;51.966;6.292;2022-12-18T11:05:23;7.50;;;4.50;;
44536;SDS011;30245;51.966;6.292;2022-12-18T11:07:50;7.50;;;5.23;;
44536;SDS011;30245;51.966;6.292;2022-12-18T11:10:17;10.07;;;5.60;;
44536;SDS011;30245;51.966;6.292;2022-12-18T11:12:44;8.87;;;6.37;;
44536;SDS011;30245;51.966;6.292;2022-12-18T11:15:24;5.77;;;4.43;;
44536;SDS011;30245;51.966;6.292;2022-12-18T11:17:52;9.17;;;5.53;;
44536;SDS011;30245;51.966;6.292;2022-12-18T11:23:05;10.48;;;5.60;;
44536;SDS011;30245;51.966;6.292;2022-12-18T11:25:37;8.90;;;5.33;;
44536;SDS011;30245;51.966;6.292;2022-12-18T11:28:05;7.80;;;5.23;;
44536;SDS011;30245;51.966;6.292;2022-12-18T11:30:50;7.40;;;4.77;;
44536;SDS011;30245;51.966;6.292;2022-12-18T11:36:21;10.30;;;5.37;;
44536;SDS011;30245;51.966;6.292;2022-12-18T11:38:48;8.67;;;5.50;;
44536;SDS011;30245;51.966;6.292;2022-12-18T11:44:30;8.87;;;5.10;;
44536;SDS011;30245;51.966;6.292;2022-12-18T11:47:04;8.77;;;4.43;;
44536;SDS011;30245;51.966;6.292;2022-12-18T11:49:40;9.20;;;5.10;;
44536;SDS011;30245;51.966;6.292;2022-12-18T11:52:14;7.83;;;4.70;;
44536;SDS011;30245;51.966;6.292;2022-12-18T11:54:46;8.30;;;5.70;;
44536;SDS011;30245;51.966;6.292;2022-12-18T11:57:23;8.25;;;4.63;;
44536;SDS011;30245;51.966;6.292;2022-12-18T12:11:01;7.00;;;4.57;;
44536;SDS011;30245;51.966;6.292;2022-12-18T12:19:27;7.60;;;5.63;;
44536;SDS011;30245;51.966;6.292;2022-12-18T12:31:18;7.30;;;5.37;;
44536;SDS011;30245;51.966;6.292;2022-12-18T12:39:18;6.50;;;4.53;;
44536;SDS011;30245;51.966;6.292;2022-12-18T12:41:47;12.77;;;5.93;;
44536;SDS011;30245;51.966;6.292;2022-12-18T12:44:33;7.90;;;5.77;;
44536;SDS011;30245;51.966;6.292;2022-12-18T12:47:13;10.10;;;6.07;;
44536;SDS011;30245;51.966;6.292;2022-12-18T12:49:43;7.15;;;4.78;;
44536;SDS011;30245;51.966;6.292;2022-12-18T12:52:14;7.83;;;5.10;;
44536;SDS011;30245;51.966;6.292;2022-12-18T12:54:42;7.60;;;4.67;;
44536;SDS011;30245;51.966;6.292;2022-12-18T12:57:11;9.37;;;5.53;;
44536;SDS011;30245;51.966;6.292;2022-12-18T12:59:49;9.40;;;4.93;;
44536;SDS011;30245;51.966;6.292;2022-12-18T13:02:33;7.23;;;4.50;;
44536;SDS011;30245;51.966;6.292;2022-12-18T13:05:04;7.23;;;4.73;;
44536;SDS011;30245;51.966;6.292;2022-12-18T13:08:05;7.70;;;5.37;;
44536;SDS011;30245;51.966;6.292;2022-12-18T13:10:34;7.00;;;5.60;;
44536;SDS011;30245;51.966;6.292;2022-12-18T13:13:02;10.43;;;4.50;;
44536;SDS011;30245;51.966;6.292;2022-12-18T13:20:37;7.18;;;4.95;;
44536;SDS011;30245;51.966;6.292;2022-12-18T13:25:49;6.73;;;3.70;;
44536;SDS011;30245;51.966;6.292;2022-12-18T13:28:49;9.30;;;5.50;;
44536;SDS011;30245;51.966;6.292;2022-12-18T13:34:21;6.17;;;3.43;;
44536;SDS011;30245;51.966;6.292;2022-12-18T13:36:49;6.60;;;4.47;;
44536;SDS011;30245;51.966;6.292;2022-12-18T13:41:47;7.32;;;4.50;;
44536;SDS011;30245;51.966;6.292;2022-12-18T13:44:59;6.87;;;4.77;;
44536;SDS011;30245;51.966;6.292;2022-12-18T13:47:26;8.17;;;4.53;;
44536;SDS011;30245;51.966;6.292;2022-12-18T13:49:57;10.97;;;4.47;;
44536;SDS011;30245;51.966;6.292;2022-12-18T13:52:28;5.60;;;4.13;;
44536;SDS011;30245;51.966;6.292;2022-12-18T13:54:58;6.97;;;5.03;;
44536;SDS011;30245;51.966;6.292;2022-12-18T13:57:29;6.27;;;4.23;;
44536;SDS011;30245;51.966;6.292;2022-12-18T13:59:58;7.33;;;5.13;;
44536;SDS011;30245;51.966;6.292;2022-12-18T14:02:37;8.53;;;5.50;;
44536;SDS011;30245;51.966;6.292;2022-12-18T14:05:03;8.77;;;4.70;;
44536;SDS011;30245;51.966;6.292;2022-12-18T14:07:29;5.63;;;4.40;;
44536;SDS011;30245;51.966;6.292;2022-12-18T14:09:57;6.00;;;3.97;;
44536;SDS011;30245;51.966;6.292;2022-12-18T14:12:25;7.05;;;4.40;;
44536;SDS011;30245;51.966;6.292;2022-12-18T14:18:30;7.73;;;5.27;;
44536;SDS011;30245;51.966;6.292;2022-12-18T14:20:52;9.73;;;4.83;;
44536;SDS011;30245;51.966;6.292;2022-12-18T14:23:38;6.13;;;4.40;;
44536;SDS011;30245;51.966;6.292;2022-12-18T14:26:27;8.53;;;4.73;;
44536;SDS011;30245;51.966;6.292;2022-12-18T14:28:54;6.93;;;4.55;;
44536;SDS011;30245;51.966;6.292;2022-12-18T14:31:24;9.10;;;5.40;;
44536;SDS011;30245;51.966;6.292;2022-12-18T14:33:51;8.50;;;4.77;;
44536;SDS011;30245;51.966;6.292;2022-12-18T14:36:19;6.20;;;4.37;;
44536;SDS011;30245;51.966;6.292;2022-12-18T14:38:53;6.17;;;4.30;;
44536;SDS011;30245;51.966;6.292;2022-12-18T14:41:21;8.47;;;5.53;;
44536;SDS011;30245;51.966;6.292;2022-12-18T14:43:49;8.47;;;5.30;;
44536;SDS011;30245;51.966;6.292;2022-12-18T14:46:26;8.13;;;5.18;;
44536;SDS011;30245;51.966;6.292;2022-12-18T14:48:52;5.83;;;4.30;;
44536;SDS011;30245;51.966;6.292;2022-12-18T14:51:19;10.80;;;5.87;;
44536;SDS011;30245;51.966;6.292;2022-12-18T14:53:47;10.07;;;5.93;;
44536;SDS011;30245;51.966;6.292;2022-12-18T14:56:20;5.50;;;4.43;;
44536;SDS011;30245;51.966;6.292;2022-12-18T14:58:58;9.00;;;5.33;;
44536;SDS011;30245;51.966;6.292;2022-12-18T15:01:27;7.13;;;5.03;;
44536;SDS011;30245;51.966;6.292;2022-12-18T15:03:55;8.53;;;5.67;;
44536;SDS011;30245;51.966;6.292;2022-12-18T15:06:35;8.27;;;5.90;;
44536;SDS011;30245;51.966;6.292;2022-12-18T15:11:54;8.93;;;5.50;;
44536;SDS011;30245;51.966;6.292;2022-12-18T15:14:35;8.80;;;6.40;;
44536;SDS011;30245;51.966;6.292;2022-12-18T15:17:06;9.30;;;6.87;;
44536;SDS011;30245;51.966;6.292;2022-12-18T15:19:46;7.83;;;5.33;;
44536;SDS011;30245;51.966;6.292;2022-12-18T15:22:20;10.07;;;6.07;;
44536;SDS011;30245;51.966;6.292;2022-12-18T15:24:51;8.73;;;5.53;;
44536;SDS011;30245;51.966;6.292;2022-12-18T15:27:22;7.47;;;4.70;;
44536;SDS011;30245;51.966;6.292;2022-12-18T15:32:37;17.70;;;6.77;;
44536;SDS011;30245;51.966;6.292;2022-12-18T15:37:39;12.47;;;7.23;;
44536;SDS011;30245;51.966;6.292;2022-12-18T15:40:06;11.50;;;6.03;;
44536;SDS011;30245;51.966;6.292;2022-12-18T15:42:33;12.17;;;6.23;;
44536;SDS011;30245;51.966;6.292;2022-12-18T15:45:17;12.63;;;6.63;;
44536;SDS011;30245;51.966;6.292;2022-12-18T15:47:43;8.33;;;5.30;;
44536;SDS011;30245;51.966;6.292;2022-12-18T15:50:09;8.93;;;5.60;;
44536;SDS011;30245;51.966;6.292;2022-12-18T15:52:39;11.23;;;6.33;;
44536;SDS011;30245;51.966;6.292;2022-12-18T15:55:14;11.17;;;6.47;;
44536;SDS011;30245;51.966;6.292;2022-12-18T15:58:04;11.23;;;5.47;;
44536;SDS011;30245;51.966;6.292;2022-12-18T16:00:34;10.30;;;6.67;;
44536;SDS011;30245;51.966;6.292;2022-12-18T16:03:01;9.53;;;5.83;;
44536;SDS011;30245;51.966;6.292;2022-12-18T16:05:28;16.03;;;7.77;;
44536;SDS011;30245;51.966;6.292;2022-12-18T16:07:53;13.17;;;8.27;;
44536;SDS011;30245;51.966;6.292;2022-12-18T16:10:19;17.40;;;9.43;;
44536;SDS011;30245;51.966;6.292;2022-12-18T16:12:45;10.07;;;6.43;;
44536;SDS011;30245;51.966;6.292;2022-12-18T16:15:12;16.10;;;9.83;;
44536;SDS011;30245;51.966;6.292;2022-12-18T16:17:40;14.33;;;8.00;;
44536;SDS011;30245;51.966;6.292;2022-12-18T16:20:11;10.63;;;6.67;;
44536;SDS011;30245;51.966;6.292;2022-12-18T16:22:40;14.07;;;8.37;;
44536;SDS011;30245;51.966;6.292;2022-12-18T16:25:06;16.23;;;8.40;;
44536;SDS011;30245;51.966;6.292;2022-12-18T16:27:35;14.30;;;9.30;;
44536;SDS011;30245;51.966;6.292;2022-12-18T16:30:01;13.13;;;8.07;;
44536;SDS011;30245;51.966;6.292;2022-12-18T16:32:27;15.73;;;8.57;;
44536;SDS011;30245;51.966;6.292;2022-12-18T16:34:52;15.70;;;9.27;;
44536;SDS011;30245;51.966;6.292;2022-12-18T16:37:18;13.47;;;8.87;;
44536;SDS011;30245;51.966;6.292;2022-12-18T16:39:44;15.83;;;9.87;;
44536;SDS011;30245;51.966;6.292;2022-12-18T16:42:18;18.10;;;8.90;;
44536;SDS011;30245;51.966;6.292;2022-12-18T16:44:45;17.77;;;9.97;;